sensor_id;sensor_type;location;lat;lon;timestamp;pressure;altitude;pressure_sealevel;temperature;humidity
20145;BME280;10233;50.814;6.590;2023-05-03T00:00:31;101374.38;;;7.67;100.00
20145;BME280;10233;50.814;6.590;2023-05-03T00:01:31;101381.47;;;7.67;100.00
20145;BME280;10233;50.814;6.590;2023-05-03T00:02:33;101380.47;;;7.68;100.00
20145;BME280;10233;50.814;6.590;2023-05-03T00:03:34;101378.31;;;7.63;100.00
20145;BME280;10233;50.814;6.590;2023-05-03T00:04:37;101372.03;;;7.64;100.00
20145;BME280;10233;50.814;6.590;2023-05-03T00:05:37;101377.81;;;7.68;100.00
20145;BME280;10233;50.814;6.590;2023-05-03T00:06:38;101378.19;;;7.73;100.00
20145;BME280;10233;50.814;6.590;2023-05-03T00:07:43;101376.75;;;7.78;100.00
20145;BME280;10233;50.814;6.590;2023-05-03T00:08:44;101377.13;;;7.83;100.00
20145;BME280;10233;50.814;6.590;2023-05-03T00:09:44;101370.03;;;7.84;100.00
20145;BME280;10233;50.814;6.590;2023-05-03T00:10:46;101377.78;;;7.85;100.00
20145;BME280;10233;50.814;6.590;2023-05-03T00:11:46;101368.19;;;7.84;100.00
20145;BME280;10233;50.814;6.590;2023-05-03T00:12:47;101373.84;;;7.89;100.00
20145;BME280;10233;50.814;6.590;2023-05-03T00:13:47;101370.53;;;7.87;100.00
20145;BME280;10233;50.814;6.590;2023-05-03T00:14:48;101377.47;;;7.88;100.00
20145;BME280;10233;50.814;6.590;2023-05-03T00:15:50;101377.13;;;7.83;100.00
20145;BME280;10233;50.814;6.590;2023-05-03T00:16:51;101375.13;;;7.85;100.00
20145;BME280;10233;50.814;6.590;2023-05-03T00:17:51;101369.69;;;7.87;100.00
20145;BME280;10233;50.814;6.590;2023-05-03T00:18:52;101369.53;;;7.88;100.00
20145;BME280;10233;50.814;6.590;2023-05-03T00:19:53;101372.19;;;7.88;100.00
20145;BME280;10233;50.814;6.590;2023-05-03T00:20:56;101368.88;;;7.86;100.00
20145;BME280;10233;50.814;6.590;2023-05-03T00:21:57;101370.47;;;7.79;100.00
20145;BME280;10233;50.814;6.590;2023-05-03T00:22:57;101370.09;;;7.74;100.00
20145;BME280;10233;50.814;6.590;2023-05-03T00:23:58;101361.81;;;7.69;100.00
20145;BME280;10233;50.814;6.590;2023-05-03T00:24:59;101365.59;;;7.67;100.00
20145;BME280;10233;50.814;6.590;2023-05-03T00:26:00;101360.00;;;7.70;100.00
20145;BME280;10233;50.814;6.590;2023-05-03T00:27:02;101365.81;;;7.73;100.00
20145;BME280;10233;50.814;6.590;2023-05-03T00:28:03;101359.84;;;7.71;100.00
20145;BME280;10233;50.814;6.590;2023-05-03T00:29:04;101366.28;;;7.69;100.00
20145;BME280;10233;50.814;6.590;2023-05-03T00:30:05;101365.94;;;7.72;100.00
20145;BME280;10233;50.814;6.590;2023-05-03T00:31:09;101368.56;;;7.64;100.00
20145;BME280;10233;50.814;6.590;2023-05-03T00:32:25;101373.00;;;7.63;100.00
20145;BME280;10233;50.814;6.590;2023-05-03T00:33:26;101373.50;;;7.59;100.00
20145;BME280;10233;50.814;6.590;2023-05-03T00:34:27;101369.16;;;7.58;100.00
20145;BME280;10233;50.814;6.590;2023-05-03T00:35:28;101379.75;;;7.58;100.00
20145;BME280;10233;50.814;6.590;2023-05-03T00:36:29;101371.13;;;7.56;100.00
20145;BME280;10233;50.814;6.590;2023-05-03T00:37:30;101378.22;;;7.55;100.00
20145;BME280;10233;50.814;6.590;2023-05-03T00:38:31;101381.34;;;7.51;100.00
20145;BME280;10233;50.814;6.590;2023-05-03T00:39:32;101378.19;;;7.47;100.00
20145;BME280;10233;50.814;6.590;2023-05-03T00:40:33;101373.19;;;7.44;100.00
20145;BME280;10233;50.814;6.590;2023-05-03T00:41:33;101378.72;;;7.51;100.00
20145;BME280;10233;50.814;6.590;2023-05-03T00:42:34;101379.16;;;7.46;100.00
20145;BME280;10233;50.814;6.590;2023-05-03T00:43:38;101377.19;;;7.48;100.00
20145;BME280;10233;50.814;6.590;2023-05-03T00:44:38;101380.06;;;7.55;100.00
20145;BME280;10233;50.814;6.590;2023-05-03T00:45:40;101375.91;;;7.52;100.00
20145;BME280;10233;50.814;6.590;2023-05-03T00:46:41;101377.50;;;7.45;100.00
20145;BME280;10233;50.814;6.590;2023-05-03T00:47:41;101376.00;;;7.43;100.00
20145;BME280;10233;50.814;6.590;2023-05-03T00:48:44;101365.25;;;7.44;100.00
20145;BME280;10233;50.814;6.590;2023-05-03T00:49:46;101369.03;;;7.42;100.00
20145;BME280;10233;50.814;6.590;2023-05-03T00:50:46;101363.75;;;7.42;100.00
20145;BME280;10233;50.814;6.590;2023-05-03T00:51:48;101370.78;;;7.51;100.00
20145;BME280;10233;50.814;6.590;2023-05-03T00:52:50;101369.28;;;7.48;100.00
20145;BME280;10233;50.814;6.590;2023-05-03T00:53:51;101368.97;;;7.51;100.00
20145;BME280;10233;50.814;6.590;2023-05-03T00:54:51;101367.00;;;7.53;100.00
20145;BME280;10233;50.814;6.590;2023-05-03T00:55:53;101368.19;;;7.59;100.00
20145;BME280;10233;50.814;6.590;2023-05-03T00:56:55;101370.00;;;7.58;100.00
20145;BME280;10233;50.814;6.590;2023-05-03T00:57:56;101368.78;;;7.53;100.00
20145;BME280;10233;50.814;6.590;2023-05-03T00:58:57;101367.34;;;7.58;100.00
20145;BME280;10233;50.814;6.590;2023-05-03T00:59:57;101369.34;;;7.56;100.00
20145;BME280;10233;50.814;6.590;2023-05-03T01:01:01;101365.41;;;7.43;100.00
20145;BME280;10233;50.814;6.590;2023-05-03T01:02:02;101364.91;;;7.39;100.00
20145;BME280;10233;50.814;6.590;2023-05-03T01:03:03;101363.91;;;7.40;100.00
20145;BME280;10233;50.814;6.590;2023-05-03T01:04:05;101363.53;;;7.35;100.00
20145;BME280;10233;50.814;6.590;2023-05-03T01:05:06;101356.13;;;7.39;100.00
20145;BME280;10233;50.814;6.590;2023-05-03T01:07:37;101358.25;;;7.35;100.00
20145;BME280;10233;50.814;6.590;2023-05-03T01:08:46;101358.72;;;7.31;100.00
20145;BME280;10233;50.814;6.590;2023-05-03T01:10:56;101358.72;;;7.31;100.00
20145;BME280;10233;50.814;6.590;2023-05-03T01:13:23;101358.94;;;7.37;100.00
20145;BME280;10233;50.814;6.590;2023-05-03T01:16:25;101359.22;;;7.34;100.00
20145;BME280;10233;50.814;6.590;2023-05-03T01:17:30;101354.19;;;7.23;100.00
20145;BME280;10233;50.814;6.590;2023-05-03T01:18:41;101360.75;;;7.19;100.00
20145;BME280;10233;50.814;6.590;2023-05-03T01:19:47;101357.97;;;7.21;100.00
20145;BME280;10233;50.814;6.590;2023-05-03T01:20:49;101356.00;;;7.23;100.00
20145;BME280;10233;50.814;6.590;2023-05-03T01:21:58;101352.34;;;7.24;100.00
20145;BME280;10233;50.814;6.590;2023-05-03T01:23:14;101350.03;;;7.21;100.00
20145;BME280;10233;50.814;6.590;2023-05-03T01:24:21;101355.31;;;7.21;100.00
20145;BME280;10233;50.814;6.590;2023-05-03T01:25:23;101353.19;;;7.24;100.00
20145;BME280;10233;50.814;6.590;2023-05-03T01:26:26;101351.22;;;7.26;100.00
20145;BME280;10233;50.814;6.590;2023-05-03T01:27:26;101360.28;;;7.24;100.00
20145;BME280;10233;50.814;6.590;2023-05-03T01:28:27;101350.69;;;7.23;100.00
20145;BME280;10233;50.814;6.590;2023-05-03T01:29:28;101356.00;;;7.23;100.00
20145;BME280;10233;50.814;6.590;2023-05-03T01:30:30;101360.84;;;7.27;100.00
20145;BME280;10233;50.814;6.590;2023-05-03T01:32:00;101364.78;;;7.23;100.00
20145;BME280;10233;50.814;6.590;2023-05-03T01:34:55;101363.88;;;7.15;100.00
20145;BME280;10233;50.814;6.590;2023-05-03T01:36:16;101366.81;;;7.12;100.00
20145;BME280;10233;50.814;6.590;2023-05-03T01:37:20;101365.16;;;7.11;100.00
20145;BME280;10233;50.814;6.590;2023-05-03T01:38:21;101365.97;;;7.11;100.00
20145;BME280;10233;50.814;6.590;2023-05-03T01:39:31;101365.59;;;7.06;100.00
20145;BME280;10233;50.814;6.590;2023-05-03T01:40:42;101360.44;;;7.05;100.00
20145;BME280;10233;50.814;6.590;2023-05-03T01:41:45;101360.00;;;7.09;100.00
20145;BME280;10233;50.814;6.590;2023-05-03T01:42:49;101365.59;;;7.06;100.00
20145;BME280;10233;50.814;6.590;2023-05-03T01:43:51;101361.16;;;7.07;100.00
20145;BME280;10233;50.814;6.590;2023-05-03T01:44:53;101367.94;;;7.09;100.00
20145;BME280;10233;50.814;6.590;2023-05-03T01:45:55;101356.84;;;7.06;100.00
20145;BME280;10233;50.814;6.590;2023-05-03T01:46:56;101357.66;;;7.06;100.00
20145;BME280;10233;50.814;6.590;2023-05-03T01:47:57;101356.38;;;7.10;100.00
20145;BME280;10233;50.814;6.590;2023-05-03T01:48:57;101354.72;;;7.09;100.00
20145;BME280;10233;50.814;6.590;2023-05-03T01:49:58;101363.28;;;7.03;100.00
20145;BME280;10233;50.814;6.590;2023-05-03T01:50:59;101359.31;;;7.07;100.00
20145;BME280;10233;50.814;6.590;2023-05-03T01:51:59;101359.88;;;7.11;100.00
20145;BME280;10233;50.814;6.590;2023-05-03T01:53:00;101364.69;;;7.15;100.00
20145;BME280;10233;50.814;6.590;2023-05-03T01:54:01;101359.53;;;7.14;100.00
20145;BME280;10233;50.814;6.590;2023-05-03T01:55:03;101367.34;;;7.15;100.00
20145;BME280;10233;50.814;6.590;2023-05-03T01:56:04;101370.06;;;7.06;100.00
20145;BME280;10233;50.814;6.590;2023-05-03T01:57:06;101363.56;;;7.00;100.00
20145;BME280;10233;50.814;6.590;2023-05-03T01:58:07;101364.53;;;6.99;100.00
20145;BME280;10233;50.814;6.590;2023-05-03T01:59:08;101361.91;;;6.99;100.00
20145;BME280;10233;50.814;6.590;2023-05-03T02:00:09;101367.19;;;6.99;100.00
20145;BME280;10233;50.814;6.590;2023-05-03T02:01:13;101370.81;;;6.98;100.00
20145;BME280;10233;50.814;6.590;2023-05-03T02:02:13;101377.44;;;7.02;100.00
20145;BME280;10233;50.814;6.590;2023-05-03T02:03:14;101364.94;;;7.04;100.00
20145;BME280;10233;50.814;6.590;2023-05-03T02:04:15;101373.47;;;6.98;100.00
20145;BME280;10233;50.814;6.590;2023-05-03T02:05:15;101372.47;;;6.99;100.00
20145;BME280;10233;50.814;6.590;2023-05-03T02:06:18;101374.75;;;6.94;100.00
20145;BME280;10233;50.814;6.590;2023-05-03T02:07:20;101374.03;;;6.92;100.00
20145;BME280;10233;50.814;6.590;2023-05-03T02:08:20;101378.19;;;6.95;100.00
20145;BME280;10233;50.814;6.590;2023-05-03T02:09:21;101380.31;;;6.91;100.00
20145;BME280;10233;50.814;6.590;2023-05-03T02:10:22;101374.25;;;6.81;100.00
20145;BME280;10233;50.814;6.590;2023-05-03T02:11:23;101381.81;;;6.76;100.00
20145;BME280;10233;50.814;6.590;2023-05-03T02:12:24;101379.16;;;6.76;100.00
20145;BME280;10233;50.814;6.590;2023-05-03T02:13:24;101376.84;;;6.73;100.00
20145;BME280;10233;50.814;6.590;2023-05-03T02:14:25;101374.50;;;6.70;100.00
20145;BME280;10233;50.814;6.590;2023-05-03T02:15:26;101376.00;;;6.73;100.00
20145;BME280;10233;50.814;6.590;2023-05-03T02:16:28;101382.13;;;6.73;100.00
20145;BME280;10233;50.814;6.590;2023-05-03T02:17:30;101373.06;;;6.76;100.00
20145;BME280;10233;50.814;6.590;2023-05-03T02:18:31;101376.53;;;6.76;100.00
20145;BME280;10233;50.814;6.590;2023-05-03T02:19:33;101379.56;;;6.81;100.00
20145;BME280;10233;50.814;6.590;2023-05-03T02:20:34;101377.75;;;6.82;100.00
20145;BME280;10233;50.814;6.590;2023-05-03T02:21:37;101379.56;;;6.81;100.00
20145;BME280;10233;50.814;6.590;2023-05-03T02:22:37;101378.41;;;6.84;100.00
20145;BME280;10233;50.814;6.590;2023-05-03T02:23:38;101382.91;;;6.83;100.00
20145;BME280;10233;50.814;6.590;2023-05-03T02:24:39;101381.53;;;6.79;100.00
20145;BME280;10233;50.814;6.590;2023-05-03T02:25:40;101379.56;;;6.81;100.00
20145;BME280;10233;50.814;6.590;2023-05-03T02:26:41;101387.41;;;6.73;100.00
20145;BME280;10233;50.814;6.590;2023-05-03T02:27:43;101388.75;;;6.77;100.00
20145;BME280;10233;50.814;6.590;2023-05-03T02:28:44;101385.72;;;6.72;100.00
20145;BME280;10233;50.814;6.590;2023-05-03T02:29:45;101389.31;;;6.81;100.00
20145;BME280;10233;50.814;6.590;2023-05-03T02:30:46;101387.94;;;6.77;100.00
20145;BME280;10233;50.814;6.590;2023-05-03T02:31:46;101394.75;;;6.79;100.00
20145;BME280;10233;50.814;6.590;2023-05-03T02:32:47;101396.00;;;6.75;100.00
20145;BME280;10233;50.814;6.590;2023-05-03T02:33:50;101402.19;;;6.66;100.00
20145;BME280;10233;50.814;6.590;2023-05-03T02:34:51;101398.88;;;6.64;100.00
20145;BME280;10233;50.814;6.590;2023-05-03T02:35:55;101405.34;;;6.70;100.00
20145;BME280;10233;50.814;6.590;2023-05-03T02:36:55;101408.38;;;6.75;100.00
20145;BME280;10233;50.814;6.590;2023-05-03T02:37:56;101394.91;;;6.68;100.00
20145;BME280;10233;50.814;6.590;2023-05-03T02:38:57;101399.91;;;6.71;100.00
20145;BME280;10233;50.814;6.590;2023-05-03T02:39:58;101399.63;;;6.74;100.00
20145;BME280;10233;50.814;6.590;2023-05-03T02:40:58;101398.19;;;6.80;100.00
20145;BME280;10233;50.814;6.590;2023-05-03T02:41:59;101405.72;;;6.75;100.00
20145;BME280;10233;50.814;6.590;2023-05-03T02:43:02;101401.81;;;6.79;100.00
20145;BME280;10233;50.814;6.590;2023-05-03T02:44:04;101403.78;;;6.77;100.00
20145;BME280;10233;50.814;6.590;2023-05-03T02:45:05;101402.28;;;6.74;100.00
20145;BME280;10233;50.814;6.590;2023-05-03T02:46:06;101400.94;;;6.61;100.00
20145;BME280;10233;50.814;6.590;2023-05-03T02:47:08;101406.00;;;6.54;100.00
20145;BME280;10233;50.814;6.590;2023-05-03T02:48:11;101400.09;;;6.43;100.00
20145;BME280;10233;50.814;6.590;2023-05-03T02:49:12;101401.59;;;6.45;100.00
20145;BME280;10233;50.814;6.590;2023-05-03T02:50:12;101400.91;;;6.43;100.00
20145;BME280;10233;50.814;6.590;2023-05-03T02:51:14;101401.28;;;6.48;100.00
20145;BME280;10233;50.814;6.590;2023-05-03T02:52:15;101397.09;;;6.55;100.00
20145;BME280;10233;50.814;6.590;2023-05-03T02:53:16;101406.75;;;6.47;100.00
20145;BME280;10233;50.814;6.590;2023-05-03T02:54:17;101399.03;;;6.53;100.00
20145;BME280;10233;50.814;6.590;2023-05-03T02:55:18;101396.56;;;6.52;100.00
20145;BME280;10233;50.814;6.590;2023-05-03T02:56:21;101397.69;;;6.49;100.00
20145;BME280;10233;50.814;6.590;2023-05-03T02:57:21;101395.19;;;6.48;100.00
20145;BME280;10233;50.814;6.590;2023-05-03T02:58:22;101388.69;;;6.42;100.00
20145;BME280;10233;50.814;6.590;2023-05-03T02:59:23;101397.00;;;6.47;100.00
20145;BME280;10233;50.814;6.590;2023-05-03T03:00:24;101394.34;;;6.47;100.00
20145;BME280;10233;50.814;6.590;2023-05-03T03:01:25;101394.75;;;6.52;100.00
20145;BME280;10233;50.814;6.590;2023-05-03T03:02:27;101386.16;;;6.50;100.00
20145;BME280;10233;50.814;6.590;2023-05-03T03:03:28;101385.03;;;6.53;100.00
20145;BME280;10233;50.814;6.590;2023-05-03T03:04:28;101384.66;;;6.38;100.00
20145;BME280;10233;50.814;6.590;2023-05-03T03:05:29;101385.22;;;6.42;100.00
20145;BME280;10233;50.814;6.590;2023-05-03T03:06:30;101382.09;;;6.29;100.00
20145;BME280;10233;50.814;6.590;2023-05-03T03:07:31;101384.44;;;6.32;100.00
20145;BME280;10233;50.814;6.590;2023-05-03T03:08:32;101382.75;;;6.31;100.00
20145;BME280;10233;50.814;6.590;2023-05-03T03:09:36;101383.16;;;6.36;100.00
20145;BME280;10233;50.814;6.590;2023-05-03T03:10:36;101389.28;;;6.36;100.00
20145;BME280;10233;50.814;6.590;2023-05-03T03:11:38;101385.72;;;6.28;100.00
20145;BME280;10233;50.814;6.590;2023-05-03T03:12:39;101385.53;;;6.29;100.00
20145;BME280;10233;50.814;6.590;2023-05-03T03:13:44;101384.22;;;6.16;100.00
20145;BME280;10233;50.814;6.590;2023-05-03T03:14:44;101385.19;;;6.15;100.00
20145;BME280;10233;50.814;6.590;2023-05-03T03:15:45;101387.31;;;6.11;100.00
20145;BME280;10233;50.814;6.590;2023-05-03T03:16:50;101377.34;;;6.05;100.00
20145;BME280;10233;50.814;6.590;2023-05-03T03:17:51;101380.53;;;5.99;100.00
20145;BME280;10233;50.814;6.590;2023-05-03T03:18:56;101373.91;;;5.95;100.00
20145;BME280;10233;50.814;6.590;2023-05-03T03:19:57;101377.78;;;5.91;100.00
20145;BME280;10233;50.814;6.590;2023-05-03T03:20:59;101380.03;;;5.86;100.00
20145;BME280;10233;50.814;6.590;2023-05-03T03:22:00;101371.94;;;5.88;100.00
20145;BME280;10233;50.814;6.590;2023-05-03T03:23:01;101371.66;;;5.91;100.00
20145;BME280;10233;50.814;6.590;2023-05-03T03:24:03;101371.94;;;5.88;100.00
20145;BME280;10233;50.814;6.590;2023-05-03T03:25:07;101360.28;;;5.90;100.00
20145;BME280;10233;50.814;6.590;2023-05-03T03:26:07;101362.91;;;5.90;100.00
20145;BME280;10233;50.814;6.590;2023-05-03T03:27:08;101360.44;;;5.89;100.00
20145;BME280;10233;50.814;6.590;2023-05-03T03:28:09;101356.97;;;5.88;100.00
20145;BME280;10233;50.814;6.590;2023-05-03T03:29:09;101353.91;;;5.83;100.00
20145;BME280;10233;50.814;6.590;2023-05-03T03:30:14;101366.44;;;5.81;100.00
20145;BME280;10233;50.814;6.590;2023-05-03T03:31:36;101361.41;;;5.78;100.00
20145;BME280;10233;50.814;6.590;2023-05-03T03:32:36;101349.75;;;5.81;100.00
20145;BME280;10233;50.814;6.590;2023-05-03T03:33:40;101357.91;;;5.78;100.00
20145;BME280;10233;50.814;6.590;2023-05-03T03:34:46;101351.97;;;5.85;100.00
20145;BME280;10233;50.814;6.590;2023-05-03T03:35:46;101358.91;;;5.86;100.00
20145;BME280;10233;50.814;6.590;2023-05-03T03:36:49;101358.09;;;5.76;100.00
20145;BME280;10233;50.814;6.590;2023-05-03T03:37:50;101361.41;;;5.78;100.00
20145;BME280;10233;50.814;6.590;2023-05-03T03:38:51;101357.28;;;5.66;100.00
20145;BME280;10233;50.814;6.590;2023-05-03T03:39:52;101357.69;;;5.62;100.00
20145;BME280;10233;50.814;6.590;2023-05-03T03:40:54;101367.44;;;5.61;100.00
20145;BME280;10233;50.814;6.590;2023-05-03T03:41:54;101360.38;;;5.52;100.00
20145;BME280;10233;50.814;6.590;2023-05-03T03:42:56;101363.00;;;5.52;100.00
20145;BME280;10233;50.814;6.590;2023-05-03T03:43:56;101358.28;;;5.46;100.00
20145;BME280;10233;50.814;6.590;2023-05-03T03:44:58;101362.44;;;5.39;100.00
20145;BME280;10233;50.814;6.590;2023-05-03T03:45:59;101359.41;;;5.34;100.00
20145;BME280;10233;50.814;6.590;2023-05-03T03:46:59;101353.06;;;5.27;100.00
20145;BME280;10233;50.814;6.590;2023-05-03T03:48:00;101361.38;;;5.13;100.00
20145;BME280;10233;50.814;6.590;2023-05-03T03:49:01;101358.44;;;5.16;100.00
20145;BME280;10233;50.814;6.590;2023-05-03T03:50:04;101358.03;;;5.11;100.00
20145;BME280;10233;50.814;6.590;2023-05-03T03:51:06;101356.91;;;5.14;100.00
20145;BME280;10233;50.814;6.590;2023-05-03T03:52:13;101360.94;;;5.18;100.00
20145;BME280;10233;50.814;6.590;2023-05-03T03:53:13;101352.75;;;5.11;100.00
20145;BME280;10233;50.814;6.590;2023-05-03T03:54:14;101356.91;;;5.14;100.00
20145;BME280;10233;50.814;6.590;2023-05-03T03:55:20;101352.91;;;5.00;100.00
20145;BME280;10233;50.814;6.590;2023-05-03T03:56:23;101362.59;;;5.00;100.00
20145;BME280;10233;50.814;6.590;2023-05-03T03:57:25;101358.31;;;4.99;100.00
20145;BME280;10233;50.814;6.590;2023-05-03T03:58:30;101353.34;;;4.96;100.00
20145;BME280;10233;50.814;6.590;2023-05-03T03:59:31;101354.00;;;4.98;100.00
20145;BME280;10233;50.814;6.590;2023-05-03T04:00:33;101355.38;;;4.92;100.00
20145;BME280;10233;50.814;6.590;2023-05-03T04:01:41;101360.81;;;4.91;100.00
20145;BME280;10233;50.814;6.590;2023-05-03T04:02:42;101356.53;;;4.99;100.00
20145;BME280;10233;50.814;6.590;2023-05-03T04:03:49;101356.09;;;5.04;100.00
20145;BME280;10233;50.814;6.590;2023-05-03T04:04:50;101346.25;;;5.06;100.00
20145;BME280;10233;50.814;6.590;2023-05-03T04:05:51;101353.31;;;5.05;100.00
20145;BME280;10233;50.814;6.590;2023-05-03T04:06:54;101348.19;;;5.04;100.00
20145;BME280;10233;50.814;6.590;2023-05-03T04:07:58;101346.53;;;5.03;100.00
20145;BME280;10233;50.814;6.590;2023-05-03T04:09:01;101347.38;;;5.03;100.00
20145;BME280;10233;50.814;6.590;2023-05-03T04:10:04;101341.28;;;5.12;100.00
20145;BME280;10233;50.814;6.590;2023-05-03T04:11:11;101333.63;;;5.09;100.00
20145;BME280;10233;50.814;6.590;2023-05-03T04:12:16;101334.19;;;5.13;100.00
20145;BME280;10233;50.814;6.590;2023-05-03T04:13:18;101337.94;;;5.10;100.00
20145;BME280;10233;50.814;6.590;2023-05-03T04:14:22;101335.03;;;5.13;100.00
20145;BME280;10233;50.814;6.590;2023-05-03T04:15:24;101336.94;;;5.11;100.00
20145;BME280;10233;50.814;6.590;2023-05-03T04:16:26;101341.28;;;5.12;100.00
20145;BME280;10233;50.814;6.590;2023-05-03T04:17:28;101349.59;;;4.98;100.00
20145;BME280;10233;50.814;6.590;2023-05-03T04:18:29;101340.16;;;4.96;100.00
20145;BME280;10233;50.814;6.590;2023-05-03T04:19:32;101342.38;;;4.91;100.00
20145;BME280;10233;50.814;6.590;2023-05-03T04:20:33;101342.78;;;4.86;100.00
20145;BME280;10233;50.814;6.590;2023-05-03T04:21:35;101345.84;;;4.82;100.00
20145;BME280;10233;50.814;6.590;2023-05-03T04:22:36;101350.94;;;4.74;100.00
20145;BME280;10233;50.814;6.590;2023-05-03T04:23:39;101358.28;;;4.80;100.00
20145;BME280;10233;50.814;6.590;2023-05-03T04:24:42;101349.03;;;4.76;100.00
20145;BME280;10233;50.814;6.590;2023-05-03T04:25:43;101354.94;;;4.68;100.00
20145;BME280;10233;50.814;6.590;2023-05-03T04:26:50;101361.91;;;4.69;100.00
20145;BME280;10233;50.814;6.590;2023-05-03T04:27:57;101361.63;;;4.63;100.00
20145;BME280;10233;50.814;6.590;2023-05-03T04:28:59;101363.69;;;4.69;100.00
20145;BME280;10233;50.814;6.590;2023-05-03T04:30:00;101357.59;;;4.68;100.00
20145;BME280;10233;50.814;6.590;2023-05-03T04:31:03;101354.94;;;4.59;100.00
20145;BME280;10233;50.814;6.590;2023-05-03T04:32:06;101353.16;;;4.59;100.00
20145;BME280;10233;50.814;6.590;2023-05-03T04:33:09;101350.09;;;4.64;100.00
20145;BME280;10233;50.814;6.590;2023-05-03T04:34:10;101357.00;;;4.46;100.00
20145;BME280;10233;50.814;6.590;2023-05-03T04:35:15;101355.63;;;4.42;100.00
20145;BME280;10233;50.814;6.590;2023-05-03T04:36:20;101366.16;;;4.42;100.00
20145;BME280;10233;50.814;6.590;2023-05-03T04:37:24;101363.09;;;4.46;100.00
20145;BME280;10233;50.814;6.590;2023-05-03T04:38:26;101367.13;;;4.50;100.00
20145;BME280;10233;50.814;6.590;2023-05-03T04:39:29;101377.78;;;4.49;100.00
20145;BME280;10233;50.814;6.590;2023-05-03T04:40:30;101370.88;;;4.48;100.00
20145;BME280;10233;50.814;6.590;2023-05-03T04:41:39;101381.53;;;4.46;100.00
20145;BME280;10233;50.814;6.590;2023-05-03T04:42:40;101376.56;;;4.53;100.00
20145;BME280;10233;50.814;6.590;2023-05-03T04:43:42;101374.22;;;4.59;100.00
20145;BME280;10233;50.814;6.590;2023-05-03T04:44:43;101379.91;;;4.64;100.00
20145;BME280;10233;50.814;6.590;2023-05-03T04:45:44;101384.88;;;4.67;100.00
20145;BME280;10233;50.814;6.590;2023-05-03T04:46:50;101386.03;;;4.74;100.00
20145;BME280;10233;50.814;6.590;2023-05-03T04:47:51;101382.38;;;4.66;100.00
20145;BME280;10233;50.814;6.590;2023-05-03T04:48:51;101391.13;;;4.66;100.00
20145;BME280;10233;50.814;6.590;2023-05-03T04:49:53;101385.44;;;4.61;100.00
20145;BME280;10233;50.814;6.590;2023-05-03T04:50:54;101381.44;;;4.67;100.00
20145;BME280;10233;50.814;6.590;2023-05-03T04:51:56;101386.84;;;4.65;100.00
20145;BME280;10233;50.814;6.590;2023-05-03T04:52:58;101382.38;;;4.66;100.00
20145;BME280;10233;50.814;6.590;2023-05-03T04:54:01;101387.25;;;4.70;100.00
20145;BME280;10233;50.814;6.590;2023-05-03T04:55:02;101392.09;;;4.65;100.00
20145;BME280;10233;50.814;6.590;2023-05-03T04:56:03;101385.72;;;4.77;100.00
20145;BME280;10233;50.814;6.590;2023-05-03T04:57:06;101380.88;;;4.73;100.00
20145;BME280;10233;50.814;6.590;2023-05-03T04:58:09;101389.03;;;4.60;100.00
20145;BME280;10233;50.814;6.590;2023-05-03T04:59:11;101384.44;;;4.53;100.00
20145;BME280;10233;50.814;6.590;2023-05-03T05:00:12;101386.78;;;4.56;100.00
20145;BME280;10233;50.814;6.590;2023-05-03T05:01:18;101390.25;;;4.47;100.00
20145;BME280;10233;50.814;6.590;2023-05-03T05:02:20;101389.69;;;4.43;100.00
20145;BME280;10233;50.814;6.590;2023-05-03T05:03:22;101398.00;;;4.48;100.00
20145;BME280;10233;50.814;6.590;2023-05-03T05:04:24;101392.47;;;4.42;100.00
20145;BME280;10233;50.814;6.590;2023-05-03T05:05:24;101388.75;;;4.54;100.00
20145;BME280;10233;50.814;6.590;2023-05-03T05:06:25;101390.28;;;4.56;100.00
20145;BME280;10233;50.814;6.590;2023-05-03T05:07:26;101395.13;;;4.61;100.00
20145;BME280;10233;50.814;6.590;2023-05-03T05:08:27;101396.13;;;4.69;100.00
20145;BME280;10233;50.814;6.590;2023-05-03T05:09:30;101390.06;;;4.78;100.00
20145;BME280;10233;50.814;6.590;2023-05-03T05:10:36;101401.97;;;4.82;100.00
20145;BME280;10233;50.814;6.590;2023-05-03T05:11:38;101394.78;;;4.84;100.00
20145;BME280;10233;50.814;6.590;2023-05-03T05:12:39;101396.84;;;5.00;100.00
20145;BME280;10233;50.814;6.590;2023-05-03T05:13:41;101396.16;;;5.07;100.00
20145;BME280;10233;50.814;6.590;2023-05-03T05:14:42;101392.03;;;5.14;100.00
20145;BME280;10233;50.814;6.590;2023-05-03T05:15:43;101398.00;;;5.26;100.00
20145;BME280;10233;50.814;6.590;2023-05-03T05:16:46;101398.66;;;5.28;100.00
20145;BME280;10233;50.814;6.590;2023-05-03T05:17:49;101396.72;;;5.39;100.00
20145;BME280;10233;50.814;6.590;2023-05-03T05:18:52;101395.88;;;5.48;100.00
20145;BME280;10233;50.814;6.590;2023-05-03T05:19:56;101397.56;;;5.59;100.00
20145;BME280;10233;50.814;6.590;2023-05-03T05:20:57;101401.41;;;5.64;100.00
20145;BME280;10233;50.814;6.590;2023-05-03T05:21:58;101403.91;;;5.66;100.00
20145;BME280;10233;50.814;6.590;2023-05-03T05:23:07;101407.66;;;5.82;100.00
20145;BME280;10233;50.814;6.590;2023-05-03T05:24:08;101411.97;;;5.83;100.00
20145;BME280;10233;50.814;6.590;2023-05-03T05:25:09;101411.66;;;5.96;100.00
20145;BME280;10233;50.814;6.590;2023-05-03T05:26:14;101409.53;;;6.09;100.00
20145;BME280;10233;50.814;6.590;2023-05-03T05:27:16;101413.84;;;6.10;100.00
20145;BME280;10233;50.814;6.590;2023-05-03T05:28:17;101404.59;;;6.23;100.00
20145;BME280;10233;50.814;6.590;2023-05-03T05:29:19;101407.78;;;6.27;100.00
20145;BME280;10233;50.814;6.590;2023-05-03T05:30:21;101408.22;;;6.32;100.00
20145;BME280;10233;50.814;6.590;2023-05-03T05:31:22;101409.28;;;6.39;100.00
20145;BME280;10233;50.814;6.590;2023-05-03T05:32:24;101406.88;;;6.45;100.00
20145;BME280;10233;50.814;6.590;2023-05-03T05:33:24;101416.59;;;6.54;100.00